createdAt,value
2017-06-05T00:01:03.756Z,0
2017-06-05T00:02:12.976Z,0
2017-06-05T00:03:22.200Z,0
2017-06-05T00:04:31.416Z,0
2017-06-05T00:05:40.308Z,0
2017-06-05T00:06:49.854Z,0
2017-06-05T00:07:59.082Z,0
2017-06-05T00:09:08.301Z,0
2017-06-05T00:10:17.190Z,0
2017-06-05T00:11:26.456Z,0
2017-06-05T00:12:35.678Z,0
2017-06-05T00:13:45.543Z,0
2017-06-05T00:14:54.762Z,0
2017-06-05T00:16:03.983Z,0
2017-06-05T00:17:13.621Z,0
2017-06-05T00:18:23.485Z,0
2017-06-05T00:19:33.350Z,0
2017-06-05T00:20:42.237Z,0
2017-06-05T00:21:51.450Z,0
2017-06-05T00:23:00.820Z,0
2017-06-05T00:24:10.394Z,0
2017-06-05T00:25:20.265Z,0
2017-06-05T00:26:29.167Z,0
2017-06-05T00:27:38.054Z,0
2017-06-05T00:28:47.536Z,0
2017-06-05T00:29:57.073Z,0
2017-06-05T00:31:06.289Z,0
2017-06-05T00:32:15.177Z,0
2017-06-05T00:33:24.717Z,0
2017-06-05T00:34:33.932Z,0
2017-06-05T00:35:42.822Z,0
2017-06-05T00:36:52.033Z,0
2017-06-05T00:38:01.248Z,0
2017-06-05T00:39:10.788Z,0
2017-06-05T00:40:20.106Z,0
2017-06-05T00:41:29.652Z,0
2017-06-05T00:42:38.873Z,0
2017-06-05T00:43:49.067Z,0
2017-06-05T00:44:58.611Z,0
2017-06-05T00:46:07.802Z,0
2017-06-05T00:47:17.018Z,0
2017-06-05T00:48:26.564Z,0
2017-06-05T00:49:35.455Z,0
2017-06-05T00:50:44.670Z,0
2017-06-05T00:51:53.894Z,0
2017-06-05T00:53:03.120Z,0
2017-06-05T00:54:12.664Z,0
2017-06-05T00:55:21.550Z,0
2017-06-05T00:56:30.762Z,0
2017-06-05T00:57:39.804Z,0
2017-06-05T00:58:50.007Z,0
2017-06-05T00:59:59.851Z,0
2017-06-05T01:01:09.717Z,0
2017-06-05T01:02:18.631Z,0
2017-06-05T01:03:27.527Z,0
2017-06-05T01:04:37.403Z,0
2017-06-05T01:05:46.941Z,0
2017-06-05T01:06:55.833Z,0
2017-06-05T01:08:05.380Z,0
2017-06-05T01:09:15.345Z,0
2017-06-05T01:10:24.237Z,0
2017-06-05T01:11:33.126Z,0
2017-06-05T01:12:42.344Z,0
2017-06-05T01:13:52.230Z,0
2017-06-05T01:15:01.609Z,0
2017-06-05T01:16:10.499Z,0
2017-06-05T01:17:20.038Z,0
2017-06-05T01:18:29.257Z,0
2017-06-05T01:19:38.146Z,0
2017-06-05T01:20:47.661Z,0
2017-06-05T01:21:56.874Z,0
2017-06-05T01:23:06.739Z,0
2017-06-05T01:24:15.956Z,0
2017-06-05T01:25:25.495Z,0
2017-06-05T01:26:35.089Z,0
2017-06-05T01:27:44.637Z,0
2017-06-05T01:28:54.512Z,0
2017-06-05T01:30:03.727Z,0
2017-06-05T01:31:12.619Z,0
2017-06-05T01:32:22.565Z,0
2017-06-05T01:33:31.782Z,0
2017-06-05T01:34:41.005Z,0
2017-06-05T01:35:49.897Z,0
2017-06-05T01:36:59.451Z,0
2017-06-05T01:38:08.671Z,0
2017-06-05T01:39:18.540Z,0
2017-06-05T01:40:27.763Z,0
2017-06-05T01:41:36.650Z,0
2017-06-05T01:42:45.541Z,0
2017-06-05T01:43:54.906Z,0
2017-06-05T01:45:04.129Z,0
2017-06-05T01:46:13.020Z,0
2017-06-05T01:47:22.238Z,0
2017-06-05T01:48:31.458Z,0
2017-06-05T01:49:40.777Z,0
2017-06-05T01:50:49.992Z,0
2017-06-05T01:51:59.203Z,0
2017-06-05T01:53:08.094Z,0
2017-06-05T01:54:16.985Z,0
2017-06-05T01:55:26.673Z,0
2017-06-05T01:56:35.886Z,0
2017-06-05T01:57:45.122Z,0
2017-06-05T01:58:54.996Z,0
2017-06-05T02:00:04.866Z,0
2017-06-05T02:01:13.855Z,0
2017-06-05T02:02:23.071Z,0
2017-06-05T02:03:31.960Z,0
2017-06-05T02:04:40.849Z,0
2017-06-05T02:05:50.065Z,0
2017-06-05T02:06:59.804Z,0
2017-06-05T02:08:09.021Z,0
2017-06-05T02:09:17.909Z,0
2017-06-05T02:10:26.797Z,0
2017-06-05T02:11:36.333Z,0
2017-06-05T02:12:45.656Z,0
2017-06-05T02:13:54.554Z,0
2017-06-05T02:15:03.771Z,0
2017-06-05T02:16:13.314Z,0
2017-06-05T02:17:22.531Z,0
2017-06-05T02:18:32.048Z,0
2017-06-05T02:19:40.938Z,0
2017-06-05T02:20:50.151Z,0
2017-06-05T02:21:59.727Z,0
2017-06-05T02:23:08.942Z,0
2017-06-05T02:24:18.258Z,0
2017-06-05T02:25:27.151Z,0
2017-06-05T02:26:36.695Z,0
2017-06-05T02:27:45.910Z,0
2017-06-05T02:28:55.451Z,0
2017-06-05T02:30:05.040Z,0
2017-06-05T02:31:13.965Z,0
2017-06-05T02:32:23.181Z,0
2017-06-05T02:33:32.072Z,0
2017-06-05T02:34:41.638Z,0
2017-06-05T02:35:50.927Z,0
2017-06-05T02:37:00.142Z,0
2017-06-05T02:38:09.035Z,0
2017-06-05T02:39:18.251Z,0
2017-06-05T02:40:27.466Z,0
2017-06-05T02:41:36.834Z,0
2017-06-05T02:42:45.740Z,0
2017-06-05T02:43:55.606Z,0
2017-06-05T02:45:05.157Z,0
2017-06-05T02:46:14.376Z,0
2017-06-05T02:47:23.268Z,0
2017-06-05T02:48:32.156Z,0
2017-06-05T02:49:41.047Z,0
2017-06-05T02:50:50.260Z,0
2017-06-05T02:51:59.474Z,0
2017-06-05T02:53:09.109Z,0
2017-06-05T02:54:18.680Z,5
2017-06-05T02:55:27.578Z,5
2017-06-05T02:56:36.471Z,5
2017-06-05T02:57:45.369Z,5
2017-06-05T02:58:54.992Z,5
2017-06-05T03:00:04.204Z,5
2017-06-05T03:01:13.099Z,5
2017-06-05T03:02:21.991Z,5
2017-06-05T03:03:31.213Z,10
2017-06-05T03:04:41.277Z,10
2017-06-05T03:05:51.144Z,10
2017-06-05T03:07:00.365Z,10
2017-06-05T03:08:09.576Z,10
2017-06-05T03:09:19.135Z,10
2017-06-05T03:10:28.075Z,15
2017-06-05T03:11:37.289Z,15
2017-06-05T03:12:46.503Z,15
2017-06-05T03:13:55.390Z,15
2017-06-05T03:15:04.607Z,15
2017-06-05T03:16:13.919Z,20
2017-06-05T03:17:23.129Z,20
2017-06-05T03:18:32.350Z,20
2017-06-05T03:19:41.568Z,20
2017-06-05T03:20:50.786Z,25
2017-06-05T03:21:59.775Z,25
2017-06-05T03:23:09.319Z,25
2017-06-05T03:24:18.530Z,25
2017-06-05T03:25:27.422Z,30
2017-06-05T03:26:36.309Z,30
2017-06-05T03:27:45.855Z,35
2017-06-05T03:28:55.727Z,35
2017-06-05T03:30:04.630Z,35
2017-06-05T03:31:13.862Z,40
2017-06-05T03:32:23.404Z,40
2017-06-05T03:33:33.253Z,45
2017-06-05T03:34:42.792Z,45
2017-06-05T03:35:52.019Z,50
2017-06-05T03:37:00.911Z,50
2017-06-05T03:38:09.805Z,55
2017-06-05T03:39:19.675Z,55
2017-06-05T03:40:29.219Z,60
2017-06-05T03:41:38.786Z,60
2017-06-05T03:42:48.008Z,65
2017-06-05T03:43:58.201Z,65
2017-06-05T03:45:07.894Z,65
2017-06-05T03:46:16.779Z,65
2017-06-05T03:47:26.319Z,70
2017-06-05T03:48:35.864Z,70
2017-06-05T03:49:45.405Z,70
2017-06-05T03:50:54.998Z,70
2017-06-05T03:52:04.221Z,70
2017-06-05T03:53:13.441Z,70
2017-06-05T03:54:22.656Z,75
2017-06-05T03:55:32.202Z,75
2017-06-05T03:56:41.902Z,75
2017-06-05T03:57:51.122Z,80
2017-06-05T03:59:00.341Z,80
2017-06-05T04:00:09.656Z,85
2017-06-05T04:01:18.871Z,90
2017-06-05T04:02:28.100Z,90
2017-06-05T04:03:37.323Z,90
2017-06-05T04:04:46.592Z,90
2017-06-05T04:05:55.492Z,90
2017-06-05T04:07:04.386Z,90
2017-06-05T04:08:13.707Z,85
2017-06-05T04:09:23.579Z,85
2017-06-05T04:10:32.795Z,85
2017-06-05T04:11:41.686Z,80
2017-06-05T04:12:50.903Z,80
2017-06-05T04:13:59.893Z,85
2017-06-05T04:15:08.793Z,85
2017-06-05T04:16:18.335Z,90
2017-06-05T04:17:27.553Z,90
2017-06-05T04:18:36.446Z,90
2017-06-05T04:19:46.296Z,90
2017-06-05T04:20:55.517Z,90
2017-06-05T04:22:04.727Z,95
2017-06-05T04:23:13.948Z,95
2017-06-05T04:24:23.816Z,95
2017-06-05T04:25:32.963Z,100
2017-06-05T04:26:42.176Z,100
2017-06-05T04:27:52.047Z,105
2017-06-05T04:29:01.295Z,105
2017-06-05T04:30:10.204Z,110
2017-06-05T04:31:19.523Z,110
2017-06-05T04:32:29.068Z,110
2017-06-05T04:33:38.287Z,105
2017-06-05T04:34:47.513Z,105
2017-06-05T04:35:56.408Z,110
2017-06-05T04:37:05.552Z,110
2017-06-05T04:38:14.773Z,110
2017-06-05T04:39:24.327Z,110
2017-06-05T04:40:33.220Z,110
2017-06-05T04:41:42.114Z,115
2017-06-05T04:42:51.754Z,120
2017-06-05T04:44:00.646Z,120
2017-06-05T04:45:09.541Z,130
2017-06-05T04:46:18.766Z,130
2017-06-05T04:47:27.988Z,135
2017-06-05T04:48:36.981Z,140
2017-06-05T04:49:46.523Z,145
2017-06-05T04:50:56.065Z,145
2017-06-05T04:52:05.285Z,140
2017-06-05T04:53:14.500Z,140
2017-06-05T04:54:23.716Z,140
2017-06-05T04:55:32.931Z,140
2017-06-05T04:56:41.825Z,135
2017-06-05T04:57:51.039Z,135
2017-06-05T04:58:59.936Z,140
2017-06-05T05:00:08.928Z,140
2017-06-05T05:01:18.476Z,135
2017-06-05T05:02:28.021Z,135
2017-06-05T05:03:37.589Z,140
2017-06-05T05:04:46.810Z,135
2017-06-05T05:05:56.127Z,135
2017-06-05T05:07:05.345Z,140
2017-06-05T05:08:15.216Z,140
2017-06-05T05:09:24.764Z,140
2017-06-05T05:10:34.629Z,140
2017-06-05T05:11:44.472Z,140
2017-06-05T05:12:53.692Z,140
2017-06-05T05:14:02.915Z,140
2017-06-05T05:15:11.808Z,145
2017-06-05T05:16:20.699Z,145
2017-06-05T05:17:30.017Z,140
2017-06-05T05:18:39.235Z,140
2017-06-05T05:19:48.782Z,145
2017-06-05T05:20:58.007Z,145
2017-06-05T05:22:06.902Z,145
2017-06-05T05:23:16.271Z,145
2017-06-05T05:24:25.492Z,150
2017-06-05T05:25:34.715Z,150
2017-06-05T05:26:44.589Z,155
2017-06-05T05:27:53.808Z,155
2017-06-05T05:29:03.180Z,155
2017-06-05T05:30:12.071Z,155
2017-06-05T05:31:21.285Z,150
2017-06-05T05:32:30.178Z,150
2017-06-05T05:33:39.078Z,155
2017-06-05T05:34:48.446Z,160
2017-06-05T05:35:57.666Z,160
2017-06-05T05:37:07.252Z,165
2017-06-05T05:38:16.506Z,160
2017-06-05T05:39:26.053Z,165
2017-06-05T05:40:35.699Z,165
2017-06-05T05:41:45.245Z,170
2017-06-05T05:42:54.466Z,170
2017-06-05T05:44:04.013Z,175
2017-06-05T05:45:13.231Z,180
2017-06-05T05:46:22.130Z,185
2017-06-05T05:47:31.025Z,180
2017-06-05T05:48:40.245Z,175
2017-06-05T05:49:49.787Z,175
2017-06-05T05:50:58.678Z,180
2017-06-05T05:52:07.897Z,180
2017-06-05T05:53:16.787Z,180
2017-06-05T05:54:25.685Z,185
2017-06-05T05:55:34.586Z,190
2017-06-05T05:56:43.479Z,190
2017-06-05T05:57:52.849Z,190
2017-06-05T05:59:01.750Z,190
2017-06-05T06:00:10.974Z,190
2017-06-05T06:01:20.845Z,195
2017-06-05T06:02:29.736Z,205
2017-06-05T06:03:39.041Z,205
2017-06-05T06:04:48.261Z,205
2017-06-05T06:05:57.803Z,200
2017-06-05T06:07:06.696Z,200
2017-06-05T06:08:15.596Z,200
2017-06-05T06:09:24.867Z,200
2017-06-05T06:10:34.089Z,195
2017-06-05T06:11:42.984Z,195
2017-06-05T06:12:52.526Z,200
2017-06-05T06:14:01.747Z,195
2017-06-05T06:15:10.787Z,205
2017-06-05T06:16:20.015Z,195
2017-06-05T06:17:28.914Z,195
2017-06-05T06:18:38.465Z,195
2017-06-05T06:19:47.682Z,200
2017-06-05T06:20:57.052Z,205
2017-06-05T06:22:06.276Z,210
2017-06-05T06:23:15.492Z,215
2017-06-05T06:24:24.387Z,215
2017-06-05T06:25:33.289Z,215
2017-06-05T06:26:42.285Z,215
2017-06-05T06:27:51.506Z,215
2017-06-05T06:29:00.727Z,220
2017-06-05T06:30:09.619Z,225
2017-06-05T06:31:18.517Z,225
2017-06-05T06:32:27.836Z,235
2017-06-05T06:33:37.385Z,235
2017-06-05T06:34:46.607Z,235
2017-06-05T06:35:55.509Z,225
2017-06-05T06:37:04.399Z,225
2017-06-05T06:38:14.046Z,220
2017-06-05T06:39:23.916Z,220
2017-06-05T06:40:33.136Z,220
2017-06-05T06:41:42.025Z,215
2017-06-05T06:42:50.914Z,215
2017-06-05T06:44:00.059Z,215
2017-06-05T06:45:09.279Z,215
2017-06-05T06:46:18.822Z,210
2017-06-05T06:47:28.037Z,215
2017-06-05T06:48:36.935Z,220
2017-06-05T06:49:46.164Z,220
2017-06-05T06:50:55.053Z,220
2017-06-05T06:52:04.267Z,220
2017-06-05T06:53:13.485Z,225
2017-06-05T06:54:23.036Z,230
2017-06-05T06:55:32.182Z,240
2017-06-05T06:56:41.725Z,245
2017-06-05T06:57:50.948Z,250
2017-06-05T06:59:00.492Z,255
2017-06-05T07:00:09.386Z,265
2017-06-05T07:01:18.692Z,270
2017-06-05T07:02:27.920Z,275
2017-06-05T07:03:36.815Z,285
2017-06-05T07:04:45.709Z,290
2017-06-05T07:05:55.251Z,305
2017-06-05T07:07:04.297Z,305
2017-06-05T07:08:13.841Z,305
2017-06-05T07:09:23.385Z,305
2017-06-05T07:10:32.608Z,300
2017-06-05T07:11:41.501Z,280
2017-06-05T07:12:50.867Z,280
2017-06-05T07:14:00.094Z,270
2017-06-05T07:15:08.985Z,270
2017-06-05T07:16:17.880Z,275
2017-06-05T07:17:26.774Z,280
2017-06-05T07:18:36.245Z,280
2017-06-05T07:19:45.138Z,275
2017-06-05T07:20:54.685Z,270
2017-06-05T07:22:03.904Z,260
2017-06-05T07:23:13.452Z,260
2017-06-05T07:24:23.473Z,260
2017-06-05T07:25:33.016Z,265
2017-06-05T07:26:41.917Z,270
2017-06-05T07:27:50.811Z,275
2017-06-05T07:28:59.756Z,280
2017-06-05T07:30:08.983Z,280
2017-06-05T07:31:17.875Z,275
2017-06-05T07:32:27.096Z,275
2017-06-05T07:33:35.990Z,260
2017-06-05T07:34:45.530Z,260
2017-06-05T07:35:54.849Z,260
2017-06-05T07:37:03.742Z,255
2017-06-05T07:38:12.968Z,250
2017-06-05T07:39:22.198Z,255
2017-06-05T07:40:31.419Z,250
2017-06-05T07:41:40.638Z,250
2017-06-05T07:42:49.858Z,245
2017-06-05T07:43:59.112Z,245
2017-06-05T07:45:08.013Z,245
2017-06-05T07:46:17.231Z,235
2017-06-05T07:47:26.274Z,235
2017-06-05T07:48:35.165Z,240
2017-06-05T07:49:44.060Z,245
2017-06-05T07:50:53.279Z,250
2017-06-05T07:52:02.499Z,255
2017-06-05T07:53:11.718Z,255
2017-06-05T07:54:20.611Z,255
2017-06-05T07:55:30.154Z,255
2017-06-05T07:56:39.049Z,250
2017-06-05T07:57:48.267Z,255
2017-06-05T07:58:57.259Z,250
2017-06-05T08:00:06.156Z,255
2017-06-05T08:01:15.376Z,250
2017-06-05T08:02:24.597Z,255
2017-06-05T08:03:33.814Z,260
2017-06-05T08:04:43.036Z,265
2017-06-05T08:05:52.253Z,270
2017-06-05T08:07:01.470Z,270
2017-06-05T08:08:10.367Z,265
2017-06-05T08:09:19.585Z,270
2017-06-05T08:10:28.630Z,275
2017-06-05T08:11:37.526Z,280
2017-06-05T08:12:46.742Z,280
2017-06-05T08:13:55.639Z,280
2017-06-05T08:15:04.860Z,280
2017-06-05T08:16:14.080Z,280
2017-06-05T08:17:22.972Z,285
2017-06-05T08:18:31.919Z,290
2017-06-05T08:19:40.812Z,295
2017-06-05T08:20:50.353Z,300
2017-06-05T08:21:59.397Z,305
2017-06-05T08:23:08.290Z,310
2017-06-05T08:24:17.185Z,315
2017-06-05T08:25:26.085Z,320
2017-06-05T08:26:35.306Z,330
2017-06-05T08:27:44.349Z,335
2017-06-05T08:28:53.241Z,345
2017-06-05T08:30:02.136Z,350
2017-06-05T08:31:11.029Z,360
2017-06-05T08:32:19.918Z,365
2017-06-05T08:33:28.837Z,375
2017-06-05T08:34:37.730Z,375
2017-06-05T08:35:46.628Z,380
2017-06-05T08:36:55.848Z,385
2017-06-05T08:38:05.066Z,390
2017-06-05T08:39:14.071Z,395
2017-06-05T08:40:22.959Z,400
2017-06-05T08:41:31.882Z,400
2017-06-05T08:42:41.426Z,415
2017-06-05T08:43:50.322Z,415
2017-06-05T08:44:59.551Z,420
2017-06-05T08:46:08.451Z,420
2017-06-05T08:47:18.000Z,425
2017-06-05T08:48:26.894Z,430
2017-06-05T08:49:35.789Z,435
2017-06-05T08:50:44.837Z,440
2017-06-05T08:51:53.732Z,445
2017-06-05T08:53:02.625Z,455
2017-06-05T08:54:11.845Z,465
2017-06-05T08:55:20.737Z,470
2017-06-05T08:56:29.956Z,480
2017-06-05T08:57:39.175Z,480
2017-06-05T08:58:48.066Z,490
2017-06-05T08:59:56.965Z,495
2017-06-05T09:01:05.862Z,490
2017-06-05T09:02:15.181Z,490
2017-06-05T09:03:24.078Z,480
2017-06-05T09:04:32.970Z,475
2017-06-05T09:05:42.189Z,475
2017-06-05T09:06:51.084Z,465
2017-06-05T09:08:00.825Z,460
2017-06-05T09:09:09.720Z,455
2017-06-05T09:10:18.615Z,455
2017-06-05T09:11:27.519Z,450
2017-06-05T09:12:37.064Z,450
2017-06-05T09:13:46.112Z,450
2017-06-05T09:14:55.363Z,440
2017-06-05T09:16:04.582Z,440
2017-06-05T09:17:13.804Z,445
2017-06-05T09:18:22.714Z,450
2017-06-05T09:19:31.605Z,450
2017-06-05T09:20:40.495Z,455
2017-06-05T09:21:49.401Z,450
2017-06-05T09:22:58.943Z,450
2017-06-05T09:24:07.846Z,450
2017-06-05T09:25:17.364Z,450
2017-06-05T09:26:26.263Z,450
2017-06-05T09:27:35.159Z,445
2017-06-05T09:28:44.052Z,440
2017-06-05T09:29:52.949Z,440
2017-06-05T09:31:02.218Z,430
2017-06-05T09:32:11.115Z,430
2017-06-05T09:33:20.009Z,435
2017-06-05T09:34:28.904Z,445
2017-06-05T09:35:37.800Z,445
2017-06-05T09:36:47.027Z,450
2017-06-05T09:37:55.922Z,450
2017-06-05T09:39:05.139Z,450
2017-06-05T09:40:14.035Z,460
2017-06-05T09:41:22.933Z,455
2017-06-05T09:42:31.980Z,450
2017-06-05T09:43:40.878Z,445
2017-06-05T09:44:49.779Z,440
2017-06-05T09:45:58.670Z,445
2017-06-05T09:47:07.604Z,450
2017-06-05T09:48:16.873Z,450
2017-06-05T09:49:25.784Z,455
2017-06-05T09:50:35.329Z,460
2017-06-05T09:51:44.551Z,465
2017-06-05T09:52:53.446Z,465
2017-06-05T09:54:02.340Z,475
2017-06-05T09:55:11.561Z,485
2017-06-05T09:56:20.781Z,495
2017-06-05T09:57:30.003Z,510
2017-06-05T09:58:39.221Z,515
2017-06-05T09:59:48.179Z,525
2017-06-05T10:00:57.075Z,530
2017-06-05T10:02:06.296Z,535
2017-06-05T10:03:15.518Z,545
2017-06-05T10:04:24.449Z,560
2017-06-05T10:05:33.395Z,570
2017-06-05T10:06:42.302Z,575
2017-06-05T10:07:51.525Z,575
2017-06-05T10:09:00.421Z,575
2017-06-05T10:10:09.323Z,560
2017-06-05T10:11:18.544Z,550
2017-06-05T10:12:27.764Z,540
2017-06-05T10:13:36.984Z,545
2017-06-05T10:14:46.201Z,545
2017-06-05T10:15:55.418Z,545
2017-06-05T10:17:04.691Z,540
2017-06-05T10:18:13.592Z,545
2017-06-05T10:19:22.824Z,560
2017-06-05T10:20:31.719Z,565
2017-06-05T10:21:40.614Z,565
2017-06-05T10:22:49.658Z,570
2017-06-05T10:23:58.555Z,560
2017-06-05T10:25:07.454Z,535
2017-06-05T10:26:16.671Z,535
2017-06-05T10:27:25.577Z,540
2017-06-05T10:28:34.523Z,550
2017-06-05T10:29:43.418Z,545
2017-06-05T10:30:52.310Z,545
2017-06-05T10:32:01.212Z,545
2017-06-05T10:33:10.432Z,535
2017-06-05T10:34:19.428Z,520
2017-06-05T10:35:28.325Z,510
2017-06-05T10:36:37.225Z,495
2017-06-05T10:37:46.120Z,480
2017-06-05T10:38:55.018Z,465
2017-06-05T10:40:04.023Z,460
2017-06-05T10:41:12.923Z,445
2017-06-05T10:42:22.473Z,440
2017-06-05T10:43:31.696Z,425
2017-06-05T10:44:40.632Z,410
2017-06-05T10:45:49.581Z,405
2017-06-05T10:46:58.479Z,390
2017-06-05T10:48:08.025Z,385
2017-06-05T10:49:17.247Z,375
2017-06-05T10:50:26.147Z,365
2017-06-05T10:51:35.295Z,350
2017-06-05T10:52:44.186Z,340
2017-06-05T10:53:53.078Z,320
2017-06-05T10:55:02.310Z,300
2017-06-05T10:56:11.208Z,295
2017-06-05T10:57:20.102Z,280
2017-06-05T10:58:29.643Z,270
2017-06-05T10:59:38.865Z,255
2017-06-05T11:00:48.087Z,255
2017-06-05T11:01:56.985Z,250
2017-06-05T11:03:06.178Z,250
2017-06-05T11:04:15.073Z,250
2017-06-05T11:05:23.977Z,250
2017-06-05T11:06:33.198Z,250
2017-06-05T11:07:42.444Z,245
2017-06-05T11:08:51.741Z,245
2017-06-05T11:10:00.637Z,250
2017-06-05T11:11:09.534Z,255
2017-06-05T11:12:18.435Z,260
2017-06-05T11:13:27.332Z,270
2017-06-05T11:14:36.226Z,275
2017-06-05T11:15:45.118Z,270
2017-06-05T11:16:54.017Z,255
2017-06-05T11:18:03.236Z,250
2017-06-05T11:19:12.458Z,250
2017-06-05T11:20:21.402Z,250
2017-06-05T11:21:30.302Z,250
2017-06-05T11:22:39.204Z,250
2017-06-05T11:23:48.098Z,250
2017-06-05T11:24:56.993Z,250
2017-06-05T11:26:05.988Z,255
2017-06-05T11:27:14.878Z,250
2017-06-05T11:28:23.774Z,250
2017-06-05T11:29:32.996Z,250
2017-06-05T11:30:41.892Z,250
2017-06-05T11:31:51.411Z,250
2017-06-05T11:33:00.307Z,250
2017-06-05T11:34:09.527Z,255
2017-06-05T11:35:18.750Z,255
2017-06-05T11:36:27.649Z,260
2017-06-05T11:37:37.191Z,265
2017-06-05T11:38:46.082Z,270
2017-06-05T11:39:54.987Z,275
2017-06-05T11:41:03.878Z,275
2017-06-05T11:42:13.106Z,275
2017-06-05T11:43:22.648Z,280
2017-06-05T11:44:31.865Z,280
2017-06-05T11:45:41.081Z,285
2017-06-05T11:46:49.973Z,295
2017-06-05T11:47:58.864Z,305
2017-06-05T11:49:07.758Z,320
2017-06-05T11:50:16.657Z,340
2017-06-05T11:51:25.879Z,1155
2017-06-05T11:52:34.774Z,2855
2017-06-05T11:53:43.673Z,3270
2017-06-05T11:54:52.568Z,3555
2017-06-05T11:56:01.462Z,3630
2017-06-05T11:57:10.682Z,3445
2017-06-05T11:58:19.581Z,3120
2017-06-05T11:59:29.128Z,3440
2017-06-05T12:00:38.330Z,3720
2017-06-05T12:01:47.555Z,3360
2017-06-05T12:02:56.786Z,3840
2017-06-05T12:04:05.684Z,3665
2017-06-05T12:05:14.584Z,3405
2017-06-05T12:06:23.494Z,3525
2017-06-05T12:07:32.719Z,3790
2017-06-05T12:08:41.630Z,3830
2017-06-05T12:09:50.528Z,3740
2017-06-05T12:10:59.759Z,3930
2017-06-05T12:12:09.042Z,3730
2017-06-05T12:13:17.943Z,3705
2017-06-05T12:14:27.196Z,4080
2017-06-05T12:15:36.421Z,3740
2017-06-05T12:16:45.324Z,530
2017-06-05T12:17:54.393Z,435
2017-06-05T12:19:03.623Z,2035
2017-06-05T12:20:12.528Z,3720
2017-06-05T12:21:21.432Z,3775
2017-06-05T12:22:30.992Z,4035
2017-06-05T12:23:40.044Z,3995
2017-06-05T12:24:48.947Z,4220
2017-06-05T12:25:57.856Z,4320
2017-06-05T12:27:07.417Z,4680
2017-06-05T12:28:16.649Z,4060
2017-06-05T12:29:25.933Z,3620
2017-06-05T12:30:35.167Z,4415
2017-06-05T12:31:44.072Z,4010
2017-06-05T12:32:52.978Z,4130
2017-06-05T12:34:01.887Z,3065
2017-06-05T12:35:10.907Z,600
2017-06-05T12:36:19.815Z,1330
2017-06-05T12:37:28.724Z,4205
2017-06-05T12:38:37.960Z,3035
2017-06-05T12:39:46.870Z,4515
2017-06-05T12:40:56.105Z,4315
2017-06-05T12:42:05.337Z,2580
2017-06-05T12:43:14.242Z,2025
2017-06-05T12:44:23.153Z,4270
2017-06-05T12:45:32.389Z,4205
2017-06-05T12:46:41.421Z,4160
2017-06-05T12:47:50.651Z,4385
2017-06-05T12:48:59.592Z,4220
2017-06-05T12:50:08.502Z,4120
2017-06-05T12:51:17.416Z,4160
2017-06-05T12:52:26.326Z,740
2017-06-05T12:53:35.241Z,765
2017-06-05T12:54:44.148Z,3615
2017-06-05T12:55:53.053Z,3915
2017-06-05T12:57:02.287Z,2590
2017-06-05T12:58:11.523Z,4025
2017-06-05T12:59:20.751Z,1075
2017-06-05T13:00:29.984Z,4275
2017-06-05T13:01:38.893Z,885
2017-06-05T13:02:48.124Z,2430
2017-06-05T13:03:57.783Z,4200
2017-06-05T13:05:06.697Z,2695
2017-06-05T13:06:15.931Z,3985
2017-06-05T13:07:24.856Z,4225
2017-06-05T13:08:34.092Z,3985
2017-06-05T13:09:43.054Z,4175
2017-06-05T13:10:51.964Z,680
2017-06-05T13:12:00.873Z,840
2017-06-05T13:13:09.784Z,4425
2017-06-05T13:14:18.693Z,4850
2017-06-05T13:15:27.611Z,4280
2017-06-05T13:16:36.848Z,4025
2017-06-05T13:17:45.760Z,4105
2017-06-05T13:18:54.678Z,3995
2017-06-05T13:20:03.913Z,4145
2017-06-05T13:21:12.976Z,4235
2017-06-05T13:22:22.214Z,4390
2017-06-05T13:23:31.158Z,2385
2017-06-05T13:24:40.074Z,775
2017-06-05T13:25:49.307Z,710
2017-06-05T13:26:58.327Z,805
2017-06-05T13:28:07.250Z,1300
2017-06-05T13:29:16.167Z,4305
2017-06-05T13:30:25.405Z,975
2017-06-05T13:31:34.326Z,580
2017-06-05T13:32:43.237Z,545
2017-06-05T13:33:52.471Z,1330
2017-06-05T13:35:01.406Z,640
2017-06-05T13:36:10.311Z,570
2017-06-05T13:37:19.221Z,600
2017-06-05T13:38:28.290Z,3690
2017-06-05T13:39:37.195Z,4210
2017-06-05T13:40:46.103Z,4395
2017-06-05T13:41:55.016Z,4225
2017-06-05T13:43:03.927Z,2350
2017-06-05T13:44:13.212Z,4050
2017-06-05T13:45:22.778Z,4155
2017-06-05T13:46:32.015Z,4235
2017-06-05T13:47:41.248Z,3665
2017-06-05T13:48:50.164Z,815
2017-06-05T13:49:59.173Z,960
2017-06-05T13:51:08.079Z,1165
2017-06-05T13:52:16.987Z,4390
2017-06-05T13:53:26.215Z,4420
2017-06-05T13:54:35.119Z,4590
2017-06-05T13:55:44.792Z,4370
2017-06-05T13:56:53.703Z,4085
2017-06-05T13:58:02.612Z,1455
2017-06-05T13:59:11.526Z,4230
2017-06-05T14:00:20.769Z,1225
2017-06-05T14:01:29.832Z,1010
2017-06-05T14:02:38.748Z,1050
2017-06-05T14:03:47.991Z,1035
2017-06-05T14:04:56.901Z,1160
2017-06-05T14:06:06.461Z,2615
2017-06-05T14:07:16.028Z,3855
2017-06-05T14:08:25.265Z,3665
2017-06-05T14:09:34.183Z,1250
2017-06-05T14:10:43.417Z,1245
2017-06-05T14:11:52.327Z,1475
2017-06-05T14:13:01.386Z,1320
2017-06-05T14:14:10.297Z,1160
2017-06-05T14:15:19.204Z,2115
2017-06-05T14:16:28.107Z,1225
2017-06-05T14:17:37.338Z,1675
2017-06-05T14:18:46.245Z,2555
2017-06-05T14:19:55.154Z,3515
2017-06-05T14:21:04.389Z,1865
2017-06-05T14:22:13.299Z,630
2017-06-05T14:23:22.209Z,985
2017-06-05T14:24:31.125Z,1280
2017-06-05T14:25:40.040Z,2520
2017-06-05T14:26:48.953Z,3370
2017-06-05T14:27:58.188Z,3455
2017-06-05T14:29:07.098Z,3620
2017-06-05T14:30:16.335Z,3525
2017-06-05T14:31:25.250Z,3470
2017-06-05T14:32:34.163Z,3605
2017-06-05T14:33:43.396Z,815
2017-06-05T14:34:52.632Z,1380
2017-06-05T14:36:01.696Z,3435
2017-06-05T14:37:10.930Z,3540
2017-06-05T14:38:19.840Z,3515
2017-06-05T14:39:28.756Z,3490
2017-06-05T14:40:37.668Z,3400
2017-06-05T14:41:47.016Z,2990
2017-06-05T14:42:55.927Z,2890
2017-06-05T14:44:05.169Z,3165
2017-06-05T14:45:14.437Z,2750
2017-06-05T14:46:23.677Z,2635
2017-06-05T14:47:33.015Z,3145
2017-06-05T14:48:42.278Z,840
2017-06-05T14:49:51.190Z,785
2017-06-05T14:51:00.103Z,1050
2017-06-05T14:52:09.014Z,2835
2017-06-05T14:53:17.933Z,3170
2017-06-05T14:54:26.846Z,3115
2017-06-05T14:55:35.763Z,2865
2017-06-05T14:56:44.715Z,3010
2017-06-05T14:57:53.627Z,1560
2017-06-05T14:59:02.593Z,1280
2017-06-05T15:00:11.509Z,955
2017-06-05T15:01:20.747Z,915
2017-06-05T15:02:29.660Z,1460
2017-06-05T15:03:38.898Z,2140
2017-06-05T15:04:48.457Z,2475
2017-06-05T15:05:57.727Z,3055
2017-06-05T15:07:06.643Z,3010
2017-06-05T15:08:15.880Z,3070
2017-06-05T15:09:24.788Z,2995
2017-06-05T15:10:33.802Z,2865
2017-06-05T15:11:42.715Z,3000
2017-06-05T15:12:51.656Z,3055
2017-06-05T15:14:00.597Z,2950
2017-06-05T15:15:09.514Z,2795
2017-06-05T15:16:18.477Z,2835
2017-06-05T15:17:27.390Z,2905
2017-06-05T15:18:36.628Z,2980
2017-06-05T15:19:45.542Z,2915
2017-06-05T15:20:54.782Z,2965
2017-06-05T15:22:03.745Z,2935
2017-06-05T15:23:12.658Z,1890
2017-06-05T15:24:21.580Z,1440
2017-06-05T15:25:30.491Z,750
2017-06-05T15:26:39.435Z,2850
2017-06-05T15:27:48.642Z,2900
2017-06-05T15:28:57.554Z,2865
2017-06-05T15:30:06.473Z,2400
2017-06-05T15:31:15.387Z,715
2017-06-05T15:32:24.298Z,880
2017-06-05T15:33:33.737Z,655
2017-06-05T15:34:42.648Z,2755
2017-06-05T15:35:51.560Z,2880
2017-06-05T15:37:01.127Z,2890
2017-06-05T15:38:10.361Z,2860
2017-06-05T15:39:19.423Z,820
2017-06-05T15:40:28.344Z,705
2017-06-05T15:41:37.587Z,635
2017-06-05T15:42:46.501Z,2145
2017-06-05T15:43:55.414Z,2600
2017-06-05T15:45:04.328Z,2495
2017-06-05T15:46:13.575Z,2580
2017-06-05T15:47:22.486Z,960
2017-06-05T15:48:31.394Z,2575
2017-06-05T15:49:40.304Z,745
2017-06-05T15:50:49.371Z,890
2017-06-05T15:51:58.609Z,2605
2017-06-05T15:53:07.845Z,2095
2017-06-05T15:54:17.075Z,1900
2017-06-05T15:55:26.309Z,750
2017-06-05T15:56:35.648Z,705
2017-06-05T15:57:44.556Z,680
2017-06-05T15:58:54.116Z,625
2017-06-05T16:00:03.021Z,930
2017-06-05T16:01:11.940Z,680